FFT2016 KLAX-KLAS
Flight info
| Callsign | FFT2016 |
|---|---|
| Flight time | 0h 49m |
| Altitude | 29000 |
| Route | ORCKA5 MISEN RNDRZ4 |
| Aircraft | A321/M-SDE3FGHIRWY/LB1 |
Departure
| Time | 2026-05-06 15:09 |
|---|---|
| Airport | Los Angeles International Airport (KLAX) |
Arrival
| Time | 2026-05-06 15:59 |
|---|---|
| Airport | Harry Reid International Airport (KLAS) |
| Time | Latitude | Longitude | Altitude | Speed | Heading |
|---|---|---|---|---|---|
| 2026-05-06 14:48 | 33.94112 | -118.40620 | 126 ft | 0 kts | 263° |
| 2026-05-06 14:56 | 33.94113 | -118.40612 | 121 ft | 4 kts | 261° |
| 2026-05-06 14:56 | 33.94121 | -118.40582 | 122 ft | 4 kts | 231° |
| 2026-05-06 14:57 | 33.94139 | -118.40568 | 123 ft | 2 kts | 174° |
| 2026-05-06 14:57 | 33.94141 | -118.40569 | 124 ft | 0 kts | 173° |
| 2026-05-06 14:59 | 33.94137 | -118.40568 | 123 ft | 3 kts | 173° |
| 2026-05-06 15:00 | 33.94090 | -118.40561 | 124 ft | 9 kts | 173° |
| 2026-05-06 15:00 | 33.94031 | -118.40553 | 123 ft | 8 kts | 172° |
| 2026-05-06 15:00 | 33.93980 | -118.40545 | 123 ft | 7 kts | 172° |
| 2026-05-06 15:00 | 33.93916 | -118.40535 | 124 ft | 14 kts | 173° |
| 2026-05-06 15:01 | 33.93836 | -118.40514 | 122 ft | 10 kts | 135° |
| 2026-05-06 15:01 | 33.93834 | -118.40436 | 125 ft | 9 kts | 83° |
| 2026-05-06 15:01 | 33.93845 | -118.40329 | 126 ft | 17 kts | 83° |
| 2026-05-06 15:01 | 33.93862 | -118.40165 | 124 ft | 21 kts | 83° |
| 2026-05-06 15:02 | 33.93874 | -118.40038 | 126 ft | 15 kts | 83° |
| 2026-05-06 15:02 | 33.93889 | -118.39893 | 126 ft | 18 kts | 83° |
| 2026-05-06 15:02 | 33.93904 | -118.39750 | 126 ft | 17 kts | 83° |
| 2026-05-06 15:02 | 33.93918 | -118.39614 | 126 ft | 16 kts | 83° |
| 2026-05-06 15:03 | 33.93931 | -118.39485 | 126 ft | 15 kts | 83° |
| 2026-05-06 15:03 | 33.93943 | -118.39363 | 124 ft | 14 kts | 83° |
| 2026-05-06 15:03 | 33.93955 | -118.39248 | 122 ft | 14 kts | 83° |
| 2026-05-06 15:03 | 33.93970 | -118.39110 | 122 ft | 20 kts | 82° |
| 2026-05-06 15:04 | 33.93982 | -118.38983 | 126 ft | 15 kts | 83° |
| 2026-05-06 15:04 | 33.93994 | -118.38865 | 126 ft | 14 kts | 83° |
| 2026-05-06 15:04 | 33.94006 | -118.38751 | 126 ft | 16 kts | 83° |
| 2026-05-06 15:04 | 33.94021 | -118.38601 | 126 ft | 17 kts | 83° |
| 2026-05-06 15:05 | 33.94036 | -118.38459 | 125 ft | 17 kts | 83° |
| 2026-05-06 15:05 | 33.94049 | -118.38327 | 126 ft | 16 kts | 83° |
| 2026-05-06 15:05 | 33.94062 | -118.38199 | 125 ft | 15 kts | 83° |
| 2026-05-06 15:05 | 33.94075 | -118.38079 | 125 ft | 14 kts | 83° |
| 2026-05-06 15:06 | 33.94072 | -118.38026 | 125 ft | 0 kts | 113° |
| 2026-05-06 15:07 | 33.94045 | -118.38002 | 125 ft | 11 kts | 160° |
| 2026-05-06 15:08 | 33.93981 | -118.38060 | 122 ft | 14 kts | 262° |
| 2026-05-06 15:08 | 33.93968 | -118.38190 | 122 ft | 26 kts | 262° |
| 2026-05-06 15:08 | 33.93915 | -118.38701 | 126 ft | 94 kts | 263° |
| 2026-05-06 15:08 | 33.93812 | -118.39710 | 126 ft | 146 kts | 263° |
| 2026-05-06 15:09 | 33.93664 | -118.41074 | 225 ft | 176 kts | 261° |
| 2026-05-06 15:09 | 33.93476 | -118.42512 | 863 ft | 169 kts | 261° |
| 2026-05-06 15:09 | 33.93314 | -118.43892 | 1530 ft | 166 kts | 262° |
| 2026-05-06 15:09 | 33.93163 | -118.45343 | 1870 ft | 182 kts | 265° |
| 2026-05-06 15:10 | 33.93323 | -118.46855 | 2316 ft | 184 kts | 291° |
| 2026-05-06 15:10 | 33.94021 | -118.48117 | 2806 ft | 182 kts | 319° |
| 2026-05-06 15:10 | 33.95120 | -118.48839 | 3247 ft | 184 kts | 340° |
| 2026-05-06 15:10 | 33.96266 | -118.49642 | 3384 ft | 201 kts | 313° |
| 2026-05-06 15:11 | 33.96866 | -118.51232 | 3502 ft | 224 kts | 277° |
| 2026-05-06 15:11 | 33.96775 | -118.53209 | 3673 ft | 250 kts | 263° |
| 2026-05-06 15:11 | 33.96487 | -118.55343 | 4194 ft | 263 kts | 262° |
| 2026-05-06 15:11 | 33.96161 | -118.57540 | 4808 ft | 270 kts | 262° |
| 2026-05-06 15:12 | 33.95818 | -118.59766 | 4982 ft | 270 kts | 261° |
| 2026-05-06 15:12 | 33.95476 | -118.61961 | 5016 ft | 270 kts | 261° |
| 2026-05-06 15:12 | 33.95114 | -118.64181 | 5019 ft | 271 kts | 257° |
| 2026-05-06 15:12 | 33.94268 | -118.66201 | 5018 ft | 274 kts | 235° |
| 2026-05-06 15:13 | 33.93071 | -118.67994 | 5018 ft | 275 kts | 232° |
| 2026-05-06 15:13 | 33.91836 | -118.69751 | 5040 ft | 273 kts | 231° |
| 2026-05-06 15:13 | 33.90608 | -118.71476 | 5590 ft | 274 kts | 231° |
| 2026-05-06 15:13 | 33.89359 | -118.73243 | 6172 ft | 279 kts | 231° |
| 2026-05-06 15:14 | 33.88102 | -118.75047 | 6740 ft | 284 kts | 231° |
| 2026-05-06 15:14 | 33.86833 | -118.76886 | 7297 ft | 287 kts | 231° |
| 2026-05-06 15:14 | 33.85549 | -118.78751 | 7856 ft | 291 kts | 231° |
| 2026-05-06 15:14 | 33.84265 | -118.80616 | 8419 ft | 295 kts | 231° |
| 2026-05-06 15:15 | 33.82945 | -118.82528 | 9005 ft | 299 kts | 229° |
| 2026-05-06 15:15 | 33.81336 | -118.84121 | 9581 ft | 304 kts | 207° |
| 2026-05-06 15:15 | 33.79323 | -118.84859 | 10173 ft | 306 kts | 182° |
| 2026-05-06 15:15 | 33.77220 | -118.84584 | 10724 ft | 304 kts | 158° |
| 2026-05-06 15:16 | 33.75396 | -118.83345 | 11287 ft | 301 kts | 134° |
| 2026-05-06 15:16 | 33.74135 | -118.81375 | 11857 ft | 297 kts | 110° |
| 2026-05-06 15:16 | 33.73578 | -118.78961 | 12089 ft | 307 kts | 88° |
| 2026-05-06 15:16 | 33.73900 | -118.76392 | 12225 ft | 320 kts | 66° |
| 2026-05-06 15:17 | 33.75055 | -118.74045 | 12356 ft | 336 kts | 53° |
| 2026-05-06 15:17 | 33.76453 | -118.71708 | 12579 ft | 351 kts | 52° |
| 2026-05-06 15:17 | 33.77894 | -118.69307 | 13118 ft | 356 kts | 52° |
| 2026-05-06 15:17 | 33.79324 | -118.66917 | 13735 ft | 359 kts | 52° |
| 2026-05-06 15:18 | 33.80782 | -118.64468 | 14312 ft | 361 kts | 52° |
| 2026-05-06 15:18 | 33.82244 | -118.62001 | 14858 ft | 364 kts | 52° |
| 2026-05-06 15:18 | 33.83718 | -118.59510 | 15394 ft | 366 kts | 52° |
| 2026-05-06 15:18 | 33.85199 | -118.57004 | 15924 ft | 369 kts | 52° |
| 2026-05-06 15:19 | 33.86693 | -118.54476 | 16444 ft | 372 kts | 52° |
| 2026-05-06 15:19 | 33.88195 | -118.51934 | 16952 ft | 374 kts | 52° |
| 2026-05-06 15:19 | 33.89726 | -118.49342 | 17462 ft | 377 kts | 52° |
| 2026-05-06 15:19 | 33.91253 | -118.46751 | 17956 ft | 380 kts | 52° |
| 2026-05-06 15:20 | 33.92768 | -118.44184 | 18440 ft | 382 kts | 52° |
| 2026-05-06 15:20 | 33.94305 | -118.41562 | 18877 ft | 385 kts | 53° |
| 2026-05-06 15:20 | 33.95830 | -118.38901 | 19314 ft | 387 kts | 53° |
| 2026-05-06 15:20 | 33.97346 | -118.36220 | 19754 ft | 389 kts | 53° |
| 2026-05-06 15:21 | 33.98863 | -118.33515 | 20177 ft | 391 kts | 54° |
| 2026-05-06 15:21 | 34.00389 | -118.30796 | 20600 ft | 393 kts | 53° |
| 2026-05-06 15:21 | 34.01926 | -118.28067 | 21019 ft | 395 kts | 53° |
| 2026-05-06 15:21 | 34.03477 | -118.25323 | 21429 ft | 397 kts | 53° |
| 2026-05-06 15:22 | 34.05035 | -118.22572 | 21839 ft | 399 kts | 53° |
| 2026-05-06 15:22 | 34.06607 | -118.19802 | 22248 ft | 401 kts | 53° |
| 2026-05-06 15:22 | 34.08186 | -118.17022 | 22662 ft | 403 kts | 53° |
| 2026-05-06 15:22 | 34.09775 | -118.14218 | 23061 ft | 405 kts | 53° |
| 2026-05-06 15:23 | 34.11366 | -118.11399 | 23482 ft | 408 kts | 53° |
| 2026-05-06 15:23 | 34.12966 | -118.08562 | 23856 ft | 410 kts | 53° |
| 2026-05-06 15:23 | 34.14571 | -118.05714 | 24205 ft | 411 kts | 53° |
| 2026-05-06 15:23 | 34.16182 | -118.02851 | 24526 ft | 413 kts | 53° |
| 2026-05-06 15:24 | 34.17800 | -117.99975 | 24856 ft | 415 kts | 53° |
| 2026-05-06 15:24 | 34.19422 | -117.97087 | 25162 ft | 416 kts | 53° |
| 2026-05-06 15:24 | 34.21048 | -117.94190 | 25479 ft | 418 kts | 53° |
| 2026-05-06 15:24 | 34.22682 | -117.91281 | 25726 ft | 419 kts | 53° |
| 2026-05-06 15:25 | 34.24303 | -117.88401 | 26056 ft | 420 kts | 53° |
| 2026-05-06 15:25 | 34.25969 | -117.85438 | 26389 ft | 421 kts | 53° |
| 2026-05-06 15:25 | 34.27593 | -117.82544 | 26690 ft | 422 kts | 53° |
| 2026-05-06 15:25 | 34.29239 | -117.79602 | 26954 ft | 423 kts | 54° |
| 2026-05-06 15:26 | 34.30889 | -117.76650 | 27228 ft | 424 kts | 54° |
| 2026-05-06 15:26 | 34.32543 | -117.73686 | 27524 ft | 426 kts | 54° |
| 2026-05-06 15:26 | 34.34206 | -117.70705 | 27843 ft | 428 kts | 54° |
| 2026-05-06 15:26 | 34.35879 | -117.67723 | 28127 ft | 429 kts | 53° |
| 2026-05-06 15:27 | 34.37598 | -117.64772 | 28479 ft | 428 kts | 52° |
| 2026-05-06 15:27 | 34.39346 | -117.61857 | 28894 ft | 427 kts | 52° |
| 2026-05-06 15:27 | 34.41103 | -117.58967 | 29072 ft | 425 kts | 52° |
| 2026-05-06 15:28 | 34.44533 | -117.53321 | 29075 ft | 411 kts | 52° |
| 2026-05-06 15:28 | 34.47870 | -117.47752 | 29164 ft | 411 kts | 52° |
| 2026-05-06 15:29 | 34.51198 | -117.42128 | 29181 ft | 410 kts | 52° |
| 2026-05-06 15:29 | 34.54555 | -117.36456 | 29185 ft | 421 kts | 52° |
| 2026-05-06 15:30 | 34.58031 | -117.30599 | 29183 ft | 432 kts | 52° |
| 2026-05-06 15:30 | 34.61540 | -117.24672 | 29174 ft | 433 kts | 52° |
| 2026-05-06 15:31 | 34.65044 | -117.18732 | 29084 ft | 433 kts | 53° |
| 2026-05-06 15:31 | 34.68549 | -117.12783 | 29089 ft | 433 kts | 52° |
| 2026-05-06 15:32 | 34.73783 | -117.03903 | 29102 ft | 432 kts | 53° |
| 2026-05-06 15:32 | 34.77278 | -116.97947 | 29111 ft | 433 kts | 53° |
| 2026-05-06 15:33 | 34.80769 | -116.91987 | 29122 ft | 433 kts | 53° |
| 2026-05-06 15:33 | 34.84235 | -116.86058 | 29144 ft | 433 kts | 53° |
| 2026-05-06 15:34 | 34.87727 | -116.80086 | 29114 ft | 433 kts | 53° |
| 2026-05-06 15:34 | 34.91212 | -116.74110 | 28892 ft | 434 kts | 53° |
| 2026-05-06 15:35 | 34.92949 | -116.71114 | 28663 ft | 433 kts | 53° |
| 2026-05-06 15:35 | 34.94673 | -116.68094 | 28389 ft | 435 kts | 53° |
| 2026-05-06 15:35 | 34.96389 | -116.65053 | 28023 ft | 436 kts | 53° |
| 2026-05-06 15:35 | 34.98099 | -116.61998 | 27676 ft | 437 kts | 54° |
| 2026-05-06 15:36 | 34.99814 | -116.58930 | 27336 ft | 439 kts | 54° |
| 2026-05-06 15:36 | 35.01539 | -116.55853 | 27008 ft | 440 kts | 53° |
| 2026-05-06 15:36 | 35.03273 | -116.52772 | 26669 ft | 441 kts | 53° |
| 2026-05-06 15:36 | 35.05013 | -116.49679 | 26336 ft | 443 kts | 53° |
| 2026-05-06 15:37 | 35.06731 | -116.46623 | 26013 ft | 444 kts | 53° |
| 2026-05-06 15:37 | 35.08484 | -116.43507 | 25691 ft | 446 kts | 53° |
| 2026-05-06 15:37 | 35.10282 | -116.40423 | 25373 ft | 446 kts | 49° |
| 2026-05-06 15:37 | 35.12374 | -116.37623 | 25063 ft | 447 kts | 45° |
| 2026-05-06 15:38 | 35.14517 | -116.34862 | 24763 ft | 448 kts | 45° |
| 2026-05-06 15:38 | 35.16666 | -116.32093 | 24510 ft | 450 kts | 45° |
| 2026-05-06 15:38 | 35.18816 | -116.29314 | 24276 ft | 451 kts | 45° |
| 2026-05-06 15:38 | 35.20970 | -116.26520 | 24035 ft | 452 kts | 45° |
| 2026-05-06 15:39 | 35.23128 | -116.23714 | 23818 ft | 453 kts | 46° |
| 2026-05-06 15:39 | 35.25266 | -116.20865 | 23581 ft | 455 kts | 46° |
| 2026-05-06 15:39 | 35.27379 | -116.17977 | 23049 ft | 456 kts | 47° |
| 2026-05-06 15:39 | 35.29467 | -116.15082 | 22366 ft | 451 kts | 47° |
| 2026-05-06 15:40 | 35.31528 | -116.12209 | 21721 ft | 447 kts | 47° |
| 2026-05-06 15:40 | 35.33576 | -116.09363 | 21088 ft | 443 kts | 47° |
| 2026-05-06 15:40 | 35.35612 | -116.06551 | 20471 ft | 440 kts | 47° |
| 2026-05-06 15:40 | 35.37612 | -116.03802 | 19880 ft | 436 kts | 47° |
| 2026-05-06 15:41 | 35.39623 | -116.01043 | 19318 ft | 433 kts | 47° |
| 2026-05-06 15:41 | 35.41620 | -115.98300 | 18767 ft | 428 kts | 47° |
| 2026-05-06 15:41 | 35.43580 | -115.95602 | 18151 ft | 421 kts | 47° |
| 2026-05-06 15:41 | 35.45511 | -115.92940 | 17602 ft | 415 kts | 47° |
| 2026-05-06 15:42 | 35.47405 | -115.90326 | 17099 ft | 406 kts | 47° |
| 2026-05-06 15:42 | 35.49246 | -115.87781 | 16910 ft | 392 kts | 47° |
| 2026-05-06 15:42 | 35.51042 | -115.85296 | 16789 ft | 387 kts | 47° |
| 2026-05-06 15:42 | 35.52826 | -115.82825 | 16620 ft | 386 kts | 47° |
| 2026-05-06 15:43 | 35.54601 | -115.80363 | 16445 ft | 385 kts | 47° |
| 2026-05-06 15:43 | 35.56378 | -115.77903 | 16280 ft | 384 kts | 47° |
| 2026-05-06 15:43 | 35.58127 | -115.75482 | 16114 ft | 384 kts | 47° |
| 2026-05-06 15:43 | 35.59899 | -115.73034 | 15939 ft | 383 kts | 47° |
| 2026-05-06 15:44 | 35.61687 | -115.70602 | 15738 ft | 383 kts | 46° |
| 2026-05-06 15:44 | 35.63481 | -115.68191 | 15541 ft | 382 kts | 46° |
| 2026-05-06 15:44 | 35.65275 | -115.65786 | 15348 ft | 381 kts | 46° |
| 2026-05-06 15:44 | 35.67064 | -115.63385 | 15171 ft | 381 kts | 46° |
| 2026-05-06 15:45 | 35.68849 | -115.60979 | 14970 ft | 380 kts | 46° |
| 2026-05-06 15:45 | 35.70626 | -115.58575 | 14775 ft | 379 kts | 46° |
| 2026-05-06 15:45 | 35.72425 | -115.56204 | 14586 ft | 378 kts | 41° |
| 2026-05-06 15:45 | 35.74562 | -115.54354 | 14395 ft | 376 kts | 29° |
| 2026-05-06 15:46 | 35.76836 | -115.52764 | 14204 ft | 376 kts | 29° |
| 2026-05-06 15:46 | 35.79110 | -115.51178 | 14015 ft | 375 kts | 29° |
| 2026-05-06 15:46 | 35.81350 | -115.49614 | 13815 ft | 375 kts | 29° |
| 2026-05-06 15:46 | 35.83584 | -115.48050 | 13624 ft | 362 kts | 28° |
| 2026-05-06 15:47 | 35.85736 | -115.46540 | 13436 ft | 349 kts | 28° |
| 2026-05-06 15:47 | 35.87809 | -115.45082 | 13268 ft | 337 kts | 28° |
| 2026-05-06 15:47 | 35.89806 | -115.43677 | 13095 ft | 325 kts | 28° |
| 2026-05-06 15:47 | 35.91736 | -115.42318 | 12857 ft | 316 kts | 28° |
| 2026-05-06 15:48 | 35.93627 | -115.40994 | 12475 ft | 307 kts | 28° |
| 2026-05-06 15:48 | 35.95453 | -115.39720 | 12116 ft | 296 kts | 28° |
| 2026-05-06 15:48 | 35.97209 | -115.38494 | 11783 ft | 286 kts | 28° |
| 2026-05-06 15:48 | 35.98911 | -115.37261 | 11463 ft | 283 kts | 34° |
| 2026-05-06 15:49 | 36.00307 | -115.35561 | 11142 ft | 283 kts | 53° |
| 2026-05-06 15:49 | 36.01163 | -115.33413 | 10850 ft | 285 kts | 71° |
| 2026-05-06 15:49 | 36.01408 | -115.30973 | 10599 ft | 290 kts | 89° |
| 2026-05-06 15:49 | 36.01282 | -115.28481 | 10356 ft | 291 kts | 90° |
| 2026-05-06 15:50 | 36.01154 | -115.25994 | 10124 ft | 290 kts | 90° |
| 2026-05-06 15:50 | 36.01030 | -115.23514 | 9862 ft | 289 kts | 90° |
| 2026-05-06 15:50 | 36.00908 | -115.21044 | 9599 ft | 288 kts | 90° |
| 2026-05-06 15:50 | 36.00787 | -115.18578 | 9424 ft | 287 kts | 90° |
| 2026-05-06 15:51 | 36.00666 | -115.16117 | 9310 ft | 287 kts | 90° |
| 2026-05-06 15:51 | 36.00543 | -115.13659 | 9184 ft | 287 kts | 90° |
| 2026-05-06 15:51 | 36.00422 | -115.11234 | 9057 ft | 286 kts | 90° |
| 2026-05-06 15:51 | 36.00298 | -115.08779 | 8822 ft | 286 kts | 91° |
| 2026-05-06 15:52 | 36.00174 | -115.06355 | 8557 ft | 280 kts | 91° |
| 2026-05-06 15:52 | 36.00052 | -115.03979 | 8308 ft | 275 kts | 91° |
| 2026-05-06 15:52 | 35.99931 | -115.01648 | 8059 ft | 269 kts | 91° |
| 2026-05-06 15:52 | 35.99854 | -114.99364 | 7735 ft | 263 kts | 89° |
| 2026-05-06 15:53 | 35.99832 | -114.97133 | 7412 ft | 255 kts | 88° |
| 2026-05-06 15:53 | 35.99829 | -114.94984 | 7093 ft | 246 kts | 88° |
| 2026-05-06 15:53 | 36.00130 | -114.92956 | 6759 ft | 238 kts | 61° |
| 2026-05-06 15:53 | 36.01136 | -114.91399 | 6450 ft | 230 kts | 37° |
| 2026-05-06 15:54 | 36.02516 | -114.90458 | 6158 ft | 226 kts | 16° |
| 2026-05-06 15:54 | 36.04059 | -114.90253 | 5848 ft | 224 kts | 353° |
| 2026-05-06 15:54 | 36.05502 | -114.90832 | 5542 ft | 223 kts | 330° |
| 2026-05-06 15:54 | 36.06683 | -114.92050 | 5235 ft | 222 kts | 308° |
| 2026-05-06 15:55 | 36.07310 | -114.93783 | 4980 ft | 216 kts | 280° |
| 2026-05-06 15:55 | 36.07366 | -114.95542 | 4729 ft | 201 kts | 270° |
| 2026-05-06 15:55 | 36.07364 | -114.97239 | 4473 ft | 188 kts | 269° |
| 2026-05-06 15:55 | 36.07364 | -114.98787 | 4258 ft | 172 kts | 269° |
| 2026-05-06 15:56 | 36.07364 | -115.00183 | 4035 ft | 158 kts | 269° |
| 2026-05-06 15:56 | 36.07365 | -115.01518 | 3835 ft | 154 kts | 269° |
| 2026-05-06 15:56 | 36.07365 | -115.02835 | 3637 ft | 152 kts | 269° |
| 2026-05-06 15:56 | 36.07366 | -115.04135 | 3446 ft | 151 kts | 269° |
| 2026-05-06 15:57 | 36.07366 | -115.05431 | 3253 ft | 151 kts | 269° |
| 2026-05-06 15:57 | 36.07366 | -115.06728 | 3053 ft | 151 kts | 268° |
| 2026-05-06 15:57 | 36.07366 | -115.08031 | 2844 ft | 152 kts | 267° |
| 2026-05-06 15:57 | 36.07366 | -115.09338 | 2639 ft | 152 kts | 268° |
| 2026-05-06 15:58 | 36.07366 | -115.10646 | 2426 ft | 152 kts | 268° |
| 2026-05-06 15:58 | 36.07368 | -115.11947 | 2297 ft | 152 kts | 268° |
| 2026-05-06 15:58 | 36.07362 | -115.13244 | 2129 ft | 144 kts | 267° |
| 2026-05-06 15:58 | 36.07361 | -115.14263 | 2127 ft | 79 kts | 270° |
| 2026-05-06 15:59 | 36.07363 | -115.14696 | 2125 ft | 30 kts | 271° |
| 2026-05-06 15:59 | 36.07409 | -115.14910 | 2125 ft | 23 kts | 292° |
| 2026-05-06 15:59 | 36.07450 | -115.15006 | 2122 ft | 0 kts | 300° |
| 2026-05-06 16:01 | 36.07458 | -115.15023 | 2124 ft | 6 kts | 300° |
| 2026-05-06 16:01 | 36.07497 | -115.15095 | 2121 ft | 12 kts | 312° |
| 2026-05-06 16:02 | 36.07552 | -115.15145 | 2125 ft | 9 kts | 332° |
| 2026-05-06 16:02 | 36.07606 | -115.15178 | 2125 ft | 9 kts | 334° |
| 2026-05-06 16:02 | 36.07670 | -115.15215 | 2130 ft | 11 kts | 336° |
| 2026-05-06 16:02 | 36.07751 | -115.15261 | 2127 ft | 13 kts | 335° |
| 2026-05-06 16:03 | 36.07823 | -115.15303 | 2128 ft | 10 kts | 335° |
| 2026-05-06 16:03 | 36.07900 | -115.15347 | 2128 ft | 13 kts | 334° |
| 2026-05-06 16:03 | 36.07984 | -115.15396 | 2126 ft | 14 kts | 335° |
| 2026-05-06 16:03 | 36.08089 | -115.15446 | 2129 ft | 16 kts | 358° |
| 2026-05-06 16:04 | 36.08199 | -115.15424 | 2124 ft | 16 kts | 2° |
| 2026-05-06 16:04 | 36.08288 | -115.15475 | 2122 ft | 13 kts | 335° |
| 2026-05-06 16:04 | 36.08362 | -115.15479 | 2119 ft | 12 kts | 41° |
| 2026-05-06 16:04 | 36.08401 | -115.15378 | 2116 ft | 14 kts | 65° |
| 2026-05-06 16:05 | 36.08440 | -115.15311 | 2115 ft | 9 kts | 22° |
| 2026-05-06 16:05 | 36.08498 | -115.15333 | 2113 ft | 8 kts | 334° |
| 2026-05-06 16:05 | 36.08520 | -115.15346 | 2114 ft | 0 kts | 333° |